• Join FlightAware (Why Join?)
  • Login
  • US Flag 
05:23AM EDT


 

Airport Tracker/Info


-or-


 

Live Flight TrackerFlight Track Log ✈ EJA922 ✈ 08-Aug-2013 ✈ TXKF / BDA - KMMU

Flight Track Log - Related Links

Times and Time Zones

All times are in EDT time to prevent confusion due to time zone crossing. See the EJA922 flight status page for this flight to view local times or setup timezone preferences in your user account.

Time Position Orientation Groundspeed Altitude Reporting Facility
EDT Latitude Longitude Course Direction KTS MPH feet Rate Location/Type
03:08PM 32.3667 -64.6833 327° Northwest 109 125 3,000  Level New York Oceanic (ODAPS)
03:12PM 32.6500 -64.9000 327° Northwest 436 502 13,000  Climbing New York Oceanic (ODAPS)
03:15PM 32.5470 -64.8211 327° Northwest 109 125 3,000 1,740 Descending FlightAware Transoceanic
03:15PM 32.6500 -64.9000 327° Northwest 436 502 18,000  Climbing New York Oceanic (ODAPS)
03:16PM 32.5728 -64.8408 327° Northwest 109 125 3,000 -7,740 Descending FlightAware Transoceanic
03:17PM 32.5985 -64.8605 327° Northwest 109 125 3,000 10,740 Level FlightAware Transoceanic
03:17PM 32.6500 -64.9000 327° Northwest 436 502 22,000 9,960 Climbing New York Oceanic (ODAPS)
03:18PM 33.2570 -65.3728 327° Northwest 436 502 13,000 -7,320 Descending FlightAware Transoceanic
03:19PM 33.3580 -65.4523 327° Northwest 436 502 13,000  Level FlightAware Transoceanic
03:20PM 33.4590 -65.5319 327° Northwest 436 502 13,000 9,480 Level FlightAware Transoceanic
03:20PM 32.6500 -64.9000 327° Northwest 436 502 26,000 4,980 Climbing New York Oceanic (ODAPS)
03:21PM 33.5598 -65.6117 327° Northwest 436 502 18,000 1,260 Descending FlightAware Transoceanic
03:21PM 32.6500 -64.9000 327° Northwest 436 502 27,000  Climbing New York Oceanic (ODAPS)
03:22PM 33.6607 -65.6917 327° Northwest 436 502 18,000 -4,920 Descending FlightAware Transoceanic
03:23PM 33.7615 -65.7719 326° Northwest 436 502 18,000 1,980 Level FlightAware Transoceanic
03:24PM 33.8622 -65.8523 326° Northwest 436 502 22,000 1,980 Climbing FlightAware Transoceanic
03:25PM 33.9629 -65.9329 326° Northwest 436 502 22,000 1,980 Level FlightAware Transoceanic
03:26PM 34.0635 -66.0136 326° Northwest 436 502 26,000 2,460 Climbing FlightAware Transoceanic
03:27PM 34.1641 -66.0946 326° Northwest 436 502 27,000 6,360 Climbing FlightAware Transoceanic
03:27PM 32.6500 -64.9000 327° Northwest 436 502 33,000  Climbing New York Oceanic (ODAPS)
03:28PM 34.2646 -66.1757 326° Northwest 436 502 27,000 -3,180 Descending FlightAware Transoceanic
03:29PM 34.3651 -66.2570 326° Northwest 436 502 27,000  Level FlightAware Transoceanic
03:30PM 34.4655 -66.3386 326° Northwest 436 502 27,000  Level FlightAware Transoceanic
03:31PM 34.5659 -66.4203 326° Northwest 436 502 27,000  Level FlightAware Transoceanic
03:32PM 34.6662 -66.5022 326° Northwest 436 502 27,000 3,000 Level FlightAware Transoceanic
03:33PM 34.7665 -66.5843 326° Northwest 436 502 33,000 3,000 Climbing FlightAware Transoceanic
03:34PM 34.8667 -66.6667 323° Northwest 436 502 33,000  Level FlightAware Transoceanic
03:35PM 34.9799 -66.7717 323° Northwest 436 502 33,000  Level FlightAware Transoceanic
03:36PM 35.0932 -66.8770 323° Northwest 436 502 33,000  Level FlightAware Transoceanic
03:37PM 35.2062 -66.9827 323° Northwest 436 502 33,000  Level FlightAware Transoceanic
03:37PM 34.8667 -66.6667 323° Northwest 455 524 33,000  Level New York Oceanic (ODAPS)
03:38PM 35.3193 -67.0886 323° Northwest 436 502 33,000  Level FlightAware Transoceanic
03:39PM 35.4322 -67.1948 322° Northwest 436 502 33,000  Level FlightAware Transoceanic
03:40PM 35.5450 -67.3013 322° Northwest 436 502 33,000  Level FlightAware Transoceanic
03:41PM 35.6577 -67.4081 322° Northwest 436 502 33,000  Level FlightAware Transoceanic
03:42PM 35.7704 -67.5153 322° Northwest 436 502 33,000  Level FlightAware Transoceanic
03:43PM 35.9272 -67.6651 322° Northwest 455 524 33,000  Level FlightAware Transoceanic
03:44PM 36.0328 -67.7664 322° Northwest 455 524 33,000  Level FlightAware Transoceanic
03:45PM 36.1383 -67.8680 322° Northwest 455 524 33,000  Level FlightAware Transoceanic
03:46PM 36.2438 -67.9698 322° Northwest 455 524 33,000  Level FlightAware Transoceanic
03:47PM 36.3491 -68.0719 322° Northwest 455 524 33,000  Level FlightAware Transoceanic
03:48PM 36.4543 -68.1743 322° Northwest 455 524 33,000  Level FlightAware Transoceanic
03:49PM 36.5595 -68.2770 322° Northwest 455 524 33,000  Level FlightAware Transoceanic
03:50PM 36.6646 -68.3800 322° Northwest 455 524 33,000  Level FlightAware Transoceanic
03:51PM 36.7696 -68.4832 322° Northwest 455 524 33,000 4,740 Level FlightAware Transoceanic
03:51PM 36.5667 -68.2833 322° Northwest 476 548 40,000  Climbing New York Oceanic (ODAPS)
03:52PM 36.8745 -68.5867 322° Northwest 455 524 33,000 -4,620 Descending FlightAware Transoceanic
03:53PM 36.9793 -68.6905 322° Northwest 455 524 33,000  Level FlightAware Transoceanic
03:54PM 37.0840 -68.7946 322° Northwest 455 524 33,000  Level FlightAware Transoceanic
03:55PM 37.1886 -68.8990 321° Northwest 455 524 33,000  Level FlightAware Transoceanic
03:56PM 37.2932 -69.0037 321° Northwest 455 524 33,000 3,480 Level FlightAware Transoceanic
03:57PM 37.2974 -69.0075 321° Northwest 476 548 40,000 3,480 Climbing FlightAware Transoceanic
03:58PM 37.4014 -69.1121 321° Northwest 476 548 40,000  Level FlightAware Transoceanic
03:59PM 37.5053 -69.2169 321° Northwest 476 548 40,000  Level FlightAware Transoceanic
04:00PM 37.6091 -69.3221 321° Northwest 476 548 40,000  Level FlightAware Transoceanic
04:01PM 37.7129 -69.4276 321° Northwest 476 548 40,000  Level FlightAware Transoceanic
04:02PM 37.8165 -69.5333 321° Northwest 476 548 40,000  Level FlightAware Transoceanic
04:03PM 37.9201 -69.6394 321° Northwest 476 548 40,000  Level FlightAware Transoceanic
04:03PM 37.8508 -69.5678 321° Northwest 518 596 40,000  Level New York Center
04:04PM 38.0235 -69.7458 321° Northwest 476 548 40,000  Level FlightAware Transoceanic
04:04PM 37.9647 -69.6897 320° Northwest 500 575 40,000  Level New York Center
04:05PM 38.1269 -69.8524 321° Northwest 476 548 40,000  Level FlightAware Transoceanic
04:05PM 38.0508 -69.7756 322° Northwest 478 550 40,000  Level New York Center
04:06PM 38.2302 -69.9594 321° Northwest 476 548 40,000  Level FlightAware Transoceanic
04:06PM 38.1497 -69.8772 321° Northwest 466 536 40,000  Level New York Center
04:07PM 38.2339 -69.9953 312° West 454 522 40,000  Level New York Center
04:08PM 38.2972 -70.1375 300° West 454 522 40,000  Level New York Center
04:09PM 38.3606 -70.2747 301° West 454 522 40,000  Level New York Center
04:10PM 38.4256 -70.4122 301° West 454 522 40,000  Level New York Center
04:11PM 38.4883 -70.5525 300° West 454 522 40,000  Level New York Center
04:12PM 38.5553 -70.6825 303° West 454 522 40,000  Level New York Center
04:13PM 38.6156 -70.8286 298° West 454 522 40,000 -300 Level New York Center
04:14PM 38.6822 -70.9617 303° West 459 528 39,400 -960 Descending New York Center
04:15PM 38.7422 -71.1031 299° West 454 522 38,100 -1,260 Descending New York Center
04:16PM 38.8086 -71.2394 302° West 454 522 37,000 -1,080 Descending New York Center
04:17PM 38.8744 -71.3944 299° West 470 541 36,000 -540 Descending New York Center
04:18PM 38.9403 -71.5419 300° West 475 547 36,000 -960 Level New York Center
04:19PM 39.0081 -71.6897 301° West 484 557 34,200 -2,340 Descending New York Center
04:20PM 39.0756 -71.8350 301° West 479 551 31,400 -2,820 Descending New York Center
04:21PM 39.1406 -71.9886 299° West 484 557 28,500 -3,000 Descending New York Center
04:22PM 39.2078 -72.1425 299° West 484 557 25,400 -2,940 Descending New York Center
04:23PM 39.2706 -72.2886 299° West 478 550 22,700 -2,700 Descending New York Center
04:24PM 39.3311 -72.4267 300° West 466 536 20,100 -2,520 Descending New York Center
04:25PM 39.3875 -72.5597 299° West 447 514 17,700 -2,580 Descending New York Center
04:26PM 39.4439 -72.6875 300° West 426 490 15,100 -2,460 Descending New York Center
04:27PM 39.4981 -72.8072 300° West 407 468 12,700 -2,520 Descending New York Center
04:28PM 39.5542 -72.9408 299° West 398 458 10,200 -1,440 Descending New York Center
04:29PM 39.6039 -73.0611 298° West 398 458 9,900 -180 Descending New York Center
04:30PM 39.6578 -73.1842 300° West 398 458 9,900 -420 Level New York Center
04:31PM 39.7014 -73.2856 299° West 365 420 9,100 -840 Descending New York Center
04:32PM 39.7431 -73.3869 298° West 335 386 8,300 -1,080 Descending New York Center
04:33PM 39.7864 -73.4883 299° West 311 358 7,000 -720 Descending New York Center
04:34PM 39.8219 -73.5792 297° West 288 331 6,900  Descending New York Center
04:35PM 39.8592 -73.6697 298° West 288 331 7,000  Climbing New York Center
04:36PM 39.8986 -73.7633 299° West 288 331 7,000 -420 Level New York Center
04:37PM 39.9381 -73.8492 301° West 282 325 6,200 -1,140 Descending New York Center
04:38PM 39.9714 -73.9317 298° West 270 311 4,800 -1,140 Descending New York Center
04:39PM 40.0044 -74.0172 297° West 270 311 4,000 -420 Descending New York Center
04:40PM 40.0358 -74.0839 302° West 259 298 4,000  Level New York Center
04:41PM 40.0667 -74.1694 295° West 254 292 4,000  Level New York Center
04:42PM 40.1039 -74.2581 299° West 254 292 4,000  Level New York Center
04:43PM 40.1367 -74.3383 298° West 254 292 4,000  Level New York Center
04:44PM 40.1717 -74.4217 299° West 254 292 4,000  Level New York Center
04:45PM 40.2242 -74.4736 323° Northwest 259 298 4,000  Level New York Center
04:46PM 40.2956 -74.5264 331° Northwest 269 310 4,000  Level New York Center
04:47PM 40.3628 -74.5761 331° Northwest 269 310 4,000  Level New York Center
04:48PM 40.4300 -74.6236 332° Northwest 269 310 4,000  Level New York Center
04:49PM 40.4992 -74.6711 332° Northwest 269 310 4,000  Level New York Center
04:50PM 40.5647 -74.7103 336° Northwest 281 323 4,000  Level New York Center
04:51PM 40.6447 -74.7422 343° North 275 316 4,000  Level New York Center
04:52PM 40.7128 -74.7628 347° North 269 310 4,000  Level New York Center
04:53PM 40.7953 -74.7922 345° North 274 315 4,000 -240 Level New York Center
04:54PM 40.8550 -74.7519 27° Northeast 255 293 3,600 -540 Descending New York Center
04:55PM 40.8831 -74.6603 68° East 215 247 3,000 -300 Descending New York Center
04:56PM 40.8856 -74.5808 88° East 210 242 3,000  Level New York Center
04:57PM 40.8839 -74.5039 92° East 210 242 3,000 -300 Level New York Center
04:58PM 40.8817 -74.4378 93° East 194 223 2,400 -480 Descending New York Center
04:59PM 40.8797 -74.3717 92° East 178 205 2,100 -240 Descending New York Center
05:00PM 40.9006 -74.3044 68° East 178 205 2,000  Descending New York Center
05:01PM 40.9294 -74.2344 61° Northeast 199 229 2,100  Climbing New York Center
05:02PM 40.9578 -74.2633 322° Northwest 122 140 2,000 -60 Descending New York Center
05:03PM 40.9108 -74.3047 214° Southwest 79 91 2,000 -120 Level New York Center
05:04PM 40.8700 -74.3439 216° Southwest 178 205 1,800 -540 Descending New York Center
05:05PM 40.8378 -74.3750 216° Southwest 165 190 1,000 -420 Descending New York Center
05:06PM 40.8033 -74.4144 221° Southwest 165 190 1,000  Level New York Center